Time;durP1;ratioP1;P1;durP2;ratioP2;P2;SDS_P1;SDS_P2;PMS_P1;PMS_P2;Temp;Humidity;BMP_temperature;BMP_pressure;BME280_temperature;BME280_humidity;BME280_pressure;Samples;Min_cycle;Max_cycle;Signal;HPM_P1;HPM_P2
2021/01/21 00:01:46;;;;;;;2.57;1.60;;;10.70;99.90;;;;;;5053412;28;20184;-64
2021/01/21 00:04:12;;;;;;;3.70;1.90;;;10.80;99.90;;;;;;5052562;28;20179;-65
2021/01/21 00:06:40;;;;;;;2.97;1.60;;;10.80;99.90;;;;;;5051880;28;20218;-65
2021/01/21 00:09:05;;;;;;;4.83;1.50;;;10.80;99.90;;;;;;5053606;28;20607;-65
2021/01/21 00:11:31;;;;;;;2.20;1.40;;;10.80;99.90;;;;;;5054013;28;20465;-64
2021/01/21 00:13:56;;;;;;;5.47;1.60;;;10.80;99.90;;;;;;5052654;28;20457;-64
2021/01/21 00:16:22;;;;;;;2.80;1.37;;;10.70;99.90;;;;;;5052813;28;20716;-64
2021/01/21 00:18:48;;;;;;;3.43;2.00;;;10.70;99.90;;;;;;5056252;28;20208;-65
2021/01/21 00:21:13;;;;;;;4.03;1.93;;;10.70;99.90;;;;;;5058536;28;20547;-65
2021/01/21 00:23:39;;;;;;;4.63;1.87;;;10.70;99.90;;;;;;5056294;28;20470;-65
2021/01/21 00:26:04;;;;;;;3.73;1.83;;;10.70;99.90;;;;;;5051236;28;20188;-65
2021/01/21 00:28:30;;;;;;;2.30;1.67;;;10.70;99.90;;;;;;5053282;28;20184;-64
2021/01/21 00:30:55;;;;;;;4.43;1.30;;;10.60;99.90;;;;;;5057182;28;20551;-64
2021/01/21 00:33:21;;;;;;;3.07;2.13;;;10.70;99.90;;;;;;5057309;28;20215;-65
2021/01/21 00:35:46;;;;;;;5.03;1.50;;;10.60;99.90;;;;;;5054538;28;20181;-64
2021/01/21 00:38:12;;;;;;;2.20;1.60;;;10.60;99.90;;;;;;5056226;28;20214;-65
2021/01/21 00:40:37;;;;;;;4.20;2.10;;;10.50;99.90;;;;;;5058258;28;20207;-65
2021/01/21 00:43:03;;;;;;;2.97;2.10;;;10.50;99.90;;;;;;5052954;28;20638;-64
2021/01/21 00:45:29;;;;;;;4.17;1.70;;;10.50;99.90;;;;;;5062280;28;20180;-65
2021/01/21 00:47:54;;;;;;;2.13;1.60;;;10.50;99.90;;;;;;5056187;28;20514;-65
2021/01/21 00:50:20;;;;;;;5.80;1.73;;;10.50;99.90;;;;;;5055901;28;20238;-64
2021/01/21 00:52:45;;;;;;;3.20;1.90;;;10.40;99.90;;;;;;5053205;28;20174;-64
2021/01/21 00:55:12;;;;;;;2.90;2.30;;;10.40;99.90;;;;;;5050649;28;20434;-64
2021/01/21 00:57:37;;;;;;;1.90;1.50;;;10.40;99.90;;;;;;5053473;28;20207;-65
2021/01/21 01:00:09;;;;;;;2.70;1.60;;;10.40;99.90;;;;;;5056343;28;20426;-64
2021/01/21 01:02:34;;;;;;;2.53;1.63;;;10.40;99.90;;;;;;5056532;28;20176;-65
2021/01/21 01:05:00;;;;;;;2.73;1.63;;;10.40;99.90;;;;;;5056624;28;20954;-65
2021/01/21 01:07:26;;;;;;;3.77;1.80;;;10.50;99.90;;;;;;5057987;28;20799;-65
2021/01/21 01:09:51;;;;;;;5.80;1.97;;;10.50;99.90;;;;;;5067411;28;20214;-64
2021/01/21 01:12:17;;;;;;;2.87;1.60;;;10.50;99.90;;;;;;5058584;28;20275;-65
2021/01/21 01:14:43;;;;;;;2.40;1.70;;;10.40;99.90;;;;;;5054616;28;20202;-64
2021/01/21 01:17:08;;;;;;;3.73;2.13;;;10.40;99.90;;;;;;5052836;28;20442;-65
2021/01/21 01:19:34;;;;;;;5.37;1.17;;;10.40;99.90;;;;;;5064311;28;20214;-65
2021/01/21 01:21:59;;;;;;;2.27;1.73;;;10.40;99.90;;;;;;5053316;28;20173;-65
2021/01/21 01:24:25;;;;;;;3.10;1.60;;;10.40;99.90;;;;;;5061565;28;20226;-65
2021/01/21 01:26:50;;;;;;;2.43;1.40;;;10.40;99.90;;;;;;5063797;28;20184;-65
2021/01/21 01:29:16;;;;;;;1.83;1.50;;;10.40;99.90;;;;;;5056457;28;20638;-65
2021/01/21 01:31:41;;;;;;;3.10;1.60;;;10.30;99.90;;;;;;5062917;28;20231;-65
2021/01/21 01:34:07;;;;;;;3.30;1.50;;;10.30;99.90;;;;;;5053596;28;20573;-65
2021/01/21 01:36:32;;;;;;;4.17;1.43;;;10.30;99.90;;;;;;5056856;28;20179;-65
2021/01/21 01:38:58;;;;;;;3.83;1.77;;;10.30;99.90;;;;;;5058466;28;20612;-64
2021/01/21 01:41:27;;;;;;;2.30;1.30;;;10.30;99.90;;;;;;5061943;28;20303;-65
2021/01/21 01:43:52;;;;;;;3.27;1.40;;;10.30;99.90;;;;;;5059055;28;20191;-65
2021/01/21 01:46:18;;;;;;;3.37;1.23;;;10.20;99.90;;;;;;5058023;28;20423;-65
2021/01/21 01:48:44;;;;;;;4.93;1.67;;;10.20;99.90;;;;;;5058874;28;20591;-64
2021/01/21 01:51:09;;;;;;;3.70;1.50;;;10.20;99.90;;;;;;5057383;28;20183;-64
2021/01/21 01:53:35;;;;;;;3.60;2.00;;;10.20;99.90;;;;;;5057391;28;20203;-64
2021/01/21 01:56:01;;;;;;;2.23;1.10;;;10.10;99.90;;;;;;5060475;28;20717;-64
2021/01/21 01:58:28;;;;;;;1.67;1.20;;;10.10;99.90;;;;;;5057178;28;20466;-65
2021/01/21 02:00:54;;;;;;;2.07;1.40;;;10.10;99.90;;;;;;5057680;28;20190;-65
2021/01/21 02:03:23;;;;;;;2.10;1.30;;;10.00;99.90;;;;;;5063967;28;20513;-65
2021/01/21 02:05:49;;;;;;;2.87;1.33;;;10.20;99.90;;;;;;5059223;28;20421;-64
2021/01/21 02:08:16;;;;;;;3.53;1.80;;;10.20;99.90;;;;;;5062195;28;20847;-65
2021/01/21 02:10:45;;;;;;;2.67;1.23;;;10.20;99.90;;;;;;5061720;28;20429;-65
2021/01/21 02:13:21;;;;;;;2.53;1.50;;;10.10;99.90;;;;;;5060087;28;20473;-65
2021/01/21 02:16:09;;;;;;;2.70;1.70;;;10.10;99.90;;;;;;5054232;28;20435;-65
2021/01/21 02:18:47;;;;;;;5.57;1.80;;;10.10;99.90;;;;;;5061045;28;20454;-64
2021/01/21 02:21:31;;;;;;;9.23;2.43;;;10.10;99.90;;;;;;5055702;28;20942;-64
2021/01/21 02:24:35;;;;;;;1.30;1.20;;;10.10;99.90;;;;;;5064947;28;20423;-65
2021/01/21 02:27:03;;;;;;;2.33;1.37;;;10.20;99.90;;;;;;5061625;28;20844;-64
2021/01/21 02:29:41;;;;;;;2.47;1.60;;;10.30;99.90;;;;;;5058244;28;20434;-65
2021/01/21 02:32:06;;;;;;;5.00;2.10;;;10.40;99.90;;;;;;5056774;28;20496;-65
2021/01/21 02:34:38;;;;;;;2.63;1.30;;;10.50;99.90;;;;;;5063858;28;20477;-65
2021/01/21 02:37:08;;;;;;;5.40;1.70;;;10.50;99.90;;;;;;5054976;28;20642;-65
2021/01/21 02:39:36;;;;;;;2.97;1.33;;;10.50;99.90;;;;;;5054640;28;20442;-65
2021/01/21 02:42:04;;;;;;;2.10;1.53;;;10.60;99.90;;;;;;5055882;28;20965;-65
2021/01/21 02:44:30;;;;;;;2.07;1.30;;;10.60;99.90;;;;;;5066813;28;20426;-65
2021/01/21 02:46:57;;;;;;;5.77;1.67;;;10.60;99.90;;;;;;5055595;28;20458;-64
2021/01/21 02:49:23;;;;;;;2.03;1.80;;;10.70;99.90;;;;;;5059244;28;20185;-64
2021/01/21 02:52:01;;;;;;;2.13;1.30;;;10.80;99.90;;;;;;5061037;28;20791;-64
2021/01/21 02:54:36;;;;;;;2.50;1.43;;;10.80;99.90;;;;;;5070243;28;20825;-64
2021/01/21 02:57:30;;;;;;;2.13;1.20;;;10.80;99.90;;;;;;5055467;28;20426;-64
2021/01/21 02:59:59;;;;;;;3.43;1.27;;;10.90;99.90;;;;;;5044050;28;20827;-64
2021/01/21 03:02:27;;;;;;;3.40;1.50;;;10.90;99.90;;;;;;5056291;28;20443;-65
2021/01/21 03:04:53;;;;;;;3.00;1.50;;;11.00;99.90;;;;;;5057946;28;20514;-64
2021/01/21 03:07:21;;;;;;;3.57;1.30;;;11.00;99.90;;;;;;5054668;28;20776;-65
2021/01/21 03:09:48;;;;;;;5.87;1.43;;;11.00;99.90;;;;;;5068790;28;20430;-65
2021/01/21 03:12:24;;;;;;;3.77;1.80;;;11.10;99.90;;;;;;5057163;28;20496;-65
2021/01/21 03:14:53;;;;;;;1.40;1.10;;;11.20;99.90;;;;;;5066362;28;20763;-64
2021/01/21 03:17:24;;;;;;;2.37;1.50;;;11.20;99.90;;;;;;5055467;28;20431;-64
2021/01/21 03:19:49;;;;;;;4.13;1.70;;;11.20;99.90;;;;;;5061970;28;20990;-65
2021/01/21 03:22:15;;;;;;;1.90;1.47;;;11.20;99.90;;;;;;5054027;28;20518;-64
2021/01/21 03:24:41;;;;;;;2.87;1.07;;;11.20;99.90;;;;;;5056190;28;20473;-64
2021/01/21 03:27:06;;;;;;;2.63;1.40;;;11.20;99.90;;;;;;5055666;28;20186;-64
2021/01/21 03:29:32;;;;;;;1.77;1.40;;;11.20;99.90;;;;;;5055517;28;20175;-64
2021/01/21 03:31:57;;;;;;;3.77;1.60;;;11.20;99.90;;;;;;5053002;28;20215;-64
2021/01/21 03:34:23;;;;;;;2.23;1.50;;;11.20;99.90;;;;;;5058730;28;20262;-64
2021/01/21 03:36:49;;;;;;;2.77;1.43;;;11.20;99.90;;;;;;5057066;28;20179;-64
2021/01/21 03:39:14;;;;;;;3.80;1.40;;;11.20;99.90;;;;;;5063211;28;20306;-64
2021/01/21 03:41:40;;;;;;;4.90;1.40;;;11.20;99.90;;;;;;5060036;28;20172;-65
2021/01/21 03:44:06;;;;;;;1.23;1.10;;;11.20;99.90;;;;;;5054513;28;20183;-64
2021/01/21 03:46:31;;;;;;;2.43;1.30;;;11.30;99.90;;;;;;5055022;28;20180;-64
2021/01/21 03:48:57;;;;;;;2.50;1.63;;;11.20;99.90;;;;;;5057039;28;20517;-64
2021/01/21 03:51:22;;;;;;;1.80;1.03;;;11.30;99.90;;;;;;5055589;28;20191;-64
2021/01/21 03:53:48;;;;;;;5.20;1.10;;;11.30;99.90;;;;;;5053405;28;20212;-64
2021/01/21 03:56:13;;;;;;;2.10;1.33;;;11.30;99.90;;;;;;5061198;28;21447;-64
2021/01/21 03:58:39;;;;;;;1.50;1.20;;;11.30;99.90;;;;;;5057798;28;20204;-65
2021/01/21 04:01:04;;;;;;;3.23;1.67;;;11.20;99.90;;;;;;5052149;28;20649;-65
2021/01/21 04:03:31;;;;;;;2.57;1.40;;;11.30;99.90;;;;;;5055155;28;20177;-65
2021/01/21 04:05:57;;;;;;;2.30;1.13;;;11.30;99.90;;;;;;5055812;28;20176;-65
2021/01/21 04:08:22;;;;;;;2.73;1.33;;;11.30;99.90;;;;;;5053518;28;20573;-65
2021/01/21 04:10:48;;;;;;;2.10;1.43;;;11.30;99.90;;;;;;5052670;28;20247;-65
2021/01/21 04:13:13;;;;;;;4.00;1.30;;;11.30;99.90;;;;;;5062323;28;20323;-65
2021/01/21 04:15:39;;;;;;;2.37;1.30;;;11.30;99.90;;;;;;5062996;28;20203;-65
2021/01/21 04:18:05;;;;;;;2.57;1.30;;;11.30;99.90;;;;;;5055173;28;20192;-65
2021/01/21 04:20:30;;;;;;;4.60;1.60;;;11.30;99.90;;;;;;5059072;28;20180;-65
2021/01/21 04:22:56;;;;;;;1.83;1.40;;;11.30;99.90;;;;;;5052494;28;20531;-65
2021/01/21 04:25:21;;;;;;;2.00;1.57;;;11.30;99.90;;;;;;5058070;28;20173;-65
2021/01/21 04:27:47;;;;;;;2.43;1.20;;;11.30;99.90;;;;;;5072637;28;20215;-65
2021/01/21 04:30:13;;;;;;;2.03;1.00;;;11.30;99.90;;;;;;5052083;28;20206;-65
2021/01/21 04:32:38;;;;;;;2.60;1.10;;;11.40;99.90;;;;;;5055044;28;20255;-65
2021/01/21 04:35:04;;;;;;;1.90;1.20;;;11.40;99.90;;;;;;5053710;28;20426;-65
2021/01/21 04:37:30;;;;;;;1.00;0.90;;;11.40;99.90;;;;;;5056779;28;20199;-65
2021/01/21 04:39:55;;;;;;;1.30;1.00;;;11.40;99.90;;;;;;5055852;28;20446;-65
2021/01/21 04:42:21;;;;;;;1.40;1.20;;;11.40;99.90;;;;;;5057967;28;20176;-65
2021/01/21 04:44:47;;;;;;;1.60;1.20;;;11.40;99.90;;;;;;5054082;28;20190;-65
2021/01/21 04:47:15;;;;;;;0.90;0.67;;;11.40;99.90;;;;;;5055613;28;20192;-65
2021/01/21 04:49:41;;;;;;;1.50;0.90;;;11.40;99.90;;;;;;5053807;28;20171;-65
2021/01/21 04:52:09;;;;;;;0.93;0.83;;;11.40;99.90;;;;;;5057919;28;20445;-65
2021/01/21 04:54:39;;;;;;;1.63;0.93;;;11.40;99.90;;;;;;5056033;28;20177;-65
2021/01/21 04:57:09;;;;;;;1.43;1.00;;;11.40;99.90;;;;;;5065295;28;20550;-65
2021/01/21 04:59:37;;;;;;;3.90;1.63;;;11.40;99.90;;;;;;5059012;28;20433;-65
2021/01/21 05:02:04;;;;;;;1.00;0.80;;;11.40;99.90;;;;;;5050761;28;20419;-65
2021/01/21 05:04:30;;;;;;;0.90;0.80;;;11.40;99.90;;;;;;5054280;28;20423;-65
2021/01/21 05:06:58;;;;;;;1.50;0.80;;;11.40;99.90;;;;;;5042440;28;20509;-65
2021/01/21 05:09:23;;;;;;;1.23;0.70;;;11.40;99.90;;;;;;5055278;28;21152;-65
2021/01/21 05:11:49;;;;;;;2.63;1.00;;;11.40;99.90;;;;;;5054815;28;20422;-65
2021/01/21 05:14:15;;;;;;;0.97;0.87;;;11.40;99.90;;;;;;5062571;28;20211;-65
2021/01/21 05:16:43;;;;;;;1.30;0.80;;;11.40;99.90;;;;;;5056234;28;20193;-65
2021/01/21 05:19:12;;;;;;;2.50;1.00;;;11.40;99.90;;;;;;5059026;28;20458;-65
2021/01/21 05:21:41;;;;;;;2.83;1.77;;;11.40;99.90;;;;;;5063710;28;20430;-65
2021/01/21 05:24:10;;;;;;;1.13;0.90;;;11.40;99.90;;;;;;5057849;28;20454;-65
2021/01/21 05:26:38;;;;;;;1.20;0.90;;;11.40;99.90;;;;;;5065878;28;20475;-65
2021/01/21 05:29:03;;;;;;;1.37;0.80;;;11.40;99.90;;;;;;5062302;28;20430;-65
2021/01/21 05:31:32;;;;;;;0.90;0.63;;;11.40;99.90;;;;;;5064719;28;20510;-65
2021/01/21 05:33:58;;;;;;;2.20;1.00;;;11.40;99.90;;;;;;5054240;28;20584;-65
2021/01/21 05:36:24;;;;;;;1.53;1.00;;;11.30;99.90;;;;;;5061461;28;20445;-65
2021/01/21 05:38:54;;;;;;;2.23;1.30;;;11.40;99.90;;;;;;5071680;28;21077;-65
2021/01/21 05:41:22;;;;;;;3.03;1.10;;;11.30;99.90;;;;;;5057001;28;20449;-65
2021/01/21 05:43:48;;;;;;;2.30;1.50;;;11.30;99.90;;;;;;5059518;28;20575;-65
2021/01/21 05:46:15;;;;;;;2.40;1.30;;;11.20;99.90;;;;;;5061677;28;20509;-65
2021/01/21 05:48:41;;;;;;;3.60;0.97;;;10.80;99.90;;;;;;5061814;28;20495;-65
2021/01/21 05:51:08;;;;;;;2.00;0.90;;;10.30;99.90;;;;;;5057326;28;20431;-65
2021/01/21 05:53:34;;;;;;;3.90;1.00;;;9.80;99.90;;;;;;5054971;28;20438;-65
2021/01/21 05:56:00;;;;;;;1.30;0.80;;;9.40;99.90;;;;;;5056544;28;20426;-65
2021/01/21 05:58:25;;;;;;;0.80;0.60;;;9.10;99.90;;;;;;5064436;28;20635;-65
2021/01/21 06:00:51;;;;;;;2.50;0.80;;;8.90;99.90;;;;;;5058170;28;20195;-65
2021/01/21 06:03:17;;;;;;;1.73;0.70;;;8.70;99.90;;;;;;5056753;28;20638;-65
2021/01/21 06:05:43;;;;;;;3.53;1.10;;;8.50;99.90;;;;;;5066748;28;20184;-65
2021/01/21 06:08:11;;;;;;;1.00;0.70;;;8.40;99.90;;;;;;5056375;28;20454;-65
2021/01/21 06:10:38;;;;;;;2.33;0.67;;;8.20;99.90;;;;;;5055294;28;20204;-65
2021/01/21 06:13:06;;;;;;;2.03;0.80;;;8.00;99.90;;;;;;5056706;28;20438;-65
2021/01/21 06:15:32;;;;;;;0.90;0.63;;;7.90;99.90;;;;;;5058991;28;20422;-65
2021/01/21 06:17:58;;;;;;;1.50;0.67;;;7.80;99.90;;;;;;5060988;28;20485;-65
2021/01/21 06:20:23;;;;;;;2.57;1.00;;;7.70;99.90;;;;;;5061497;28;20431;-65
2021/01/21 06:22:54;;;;;;;1.40;0.80;;;7.70;99.90;;;;;;5056642;28;20739;-65
2021/01/21 06:25:21;;;;;;;1.10;0.77;;;7.60;99.90;;;;;;5060592;28;20173;-65
2021/01/21 06:27:47;;;;;;;3.13;1.00;;;7.50;99.90;;;;;;5060243;28;20472;-65
2021/01/21 06:30:20;;;;;;;5.43;1.40;;;7.50;99.90;;;;;;5063608;28;20947;-65
2021/01/21 06:33:05;;;;;;;6.43;1.30;;;7.40;99.90;;;;;;5062909;28;20474;-65
2021/01/21 06:35:40;;;;;;;2.07;1.20;;;7.30;99.90;;;;;;5067884;28;20430;-65
2021/01/21 06:38:14;;;;;;;3.93;1.17;;;7.30;99.90;;;;;;5060320;28;20457;-65
2021/01/21 06:40:47;;;;;;;1.57;1.10;;;7.20;99.90;;;;;;5056095;28;20886;-65
2021/01/21 06:43:18;;;;;;;1.83;1.10;;;7.10;99.90;;;;;;5065799;28;20471;-65
2021/01/21 06:45:44;;;;;;;4.03;1.60;;;7.20;99.90;;;;;;5060276;28;20423;-65
2021/01/21 06:48:11;;;;;;;3.63;1.47;;;7.10;99.90;;;;;;5063925;28;20566;-65
2021/01/21 06:50:39;;;;;;;3.10;1.10;;;7.10;99.90;;;;;;5055942;28;20522;-65
2021/01/21 06:53:07;;;;;;;6.57;1.23;;;7.00;99.90;;;;;;5064173;28;20514;-65
2021/01/21 06:55:35;;;;;;;3.40;1.20;;;7.00;99.90;;;;;;5070088;28;20864;-65
2021/01/21 06:58:01;;;;;;;3.87;1.50;;;6.90;99.90;;;;;;5058108;28;20527;-65
2021/01/21 07:00:43;;;;;;;4.17;1.80;;;6.90;99.90;;;;;;5060621;28;20431;-65
2021/01/21 07:03:27;;;;;;;5.03;1.53;;;6.90;99.90;;;;;;5066085;28;20501;-65
2021/01/21 07:06:00;;;;;;;3.13;1.53;;;6.80;99.90;;;;;;5058282;28;20433;-65
2021/01/21 07:08:27;;;;;;;3.13;1.90;;;6.80;99.90;;;;;;5059505;28;20430;-65
2021/01/21 07:11:00;;;;;;;5.83;2.27;;;6.70;99.90;;;;;;5053649;28;21169;-65
2021/01/21 07:13:29;;;;;;;2.50;1.53;;;6.60;99.90;;;;;;5058343;28;20430;-65
2021/01/21 07:16:01;;;;;;;3.87;1.80;;;6.60;99.90;;;;;;5068227;28;20446;-65
2021/01/21 07:18:35;;;;;;;5.33;1.70;;;6.60;99.90;;;;;;5060613;28;20485;-65
2021/01/21 07:21:05;;;;;;;9.23;2.30;;;6.50;99.90;;;;;;5057171;28;20920;-65
2021/01/21 07:23:46;;;;;;;4.80;1.77;;;6.50;99.90;;;;;;5057917;28;20434;-65
2021/01/21 07:26:33;;;;;;;5.50;1.67;;;6.60;99.90;;;;;;5056427;28;20434;-65
2021/01/21 07:29:06;;;;;;;4.77;2.47;;;6.50;99.90;;;;;;5059506;28;20418;-65
2021/01/21 07:31:53;;;;;;;8.00;1.90;;;6.50;99.90;;;;;;5059254;28;20800;-65
2021/01/21 07:34:35;;;;;;;4.60;2.80;;;6.50;99.90;;;;;;5060254;28;20574;-65
2021/01/21 07:37:06;;;;;;;10.37;3.07;;;6.50;99.90;;;;;;5054083;28;20422;-65
2021/01/21 07:39:56;;;;;;;5.70;2.10;;;6.50;99.90;;;;;;5061105;28;20463;-65
2021/01/21 07:42:32;;;;;;;9.50;2.80;;;6.50;99.90;;;;;;5061656;28;20453;-65
2021/01/21 07:45:07;;;;;;;7.10;2.37;;;6.50;99.90;;;;;;5067853;28;20425;-65
2021/01/21 07:47:35;;;;;;;5.13;2.10;;;6.50;99.90;;;;;;5061429;28;21184;-65
2021/01/21 07:50:19;;;;;;;8.90;2.23;;;6.50;99.90;;;;;;5059958;28;20496;-65
2021/01/21 07:52:55;;;;;;;6.90;1.90;;;6.50;99.90;;;;;;5055293;28;20422;-65
2021/01/21 07:55:28;;;;;;;5.80;2.10;;;6.50;99.90;;;;;;5063084;28;20417;-65
2021/01/21 07:57:53;;;;;;;7.23;2.10;;;6.50;99.90;;;;;;5060712;28;20487;-65
2021/01/21 08:00:20;;;;;;;4.93;2.23;;;6.60;99.90;;;;;;5057105;28;20468;-65
2021/01/21 08:02:50;;;;;;;4.87;2.00;;;6.50;99.90;;;;;;5057187;28;20282;-65
2021/01/21 08:05:17;;;;;;;6.90;1.73;;;6.50;99.90;;;;;;5060669;28;20817;-65
2021/01/21 08:07:48;;;;;;;2.60;1.50;;;6.50;99.90;;;;;;5064632;28;20464;-65
2021/01/21 08:10:35;;;;;;;3.33;1.20;;;6.60;99.90;;;;;;5062776;28;20430;-65
2021/01/21 08:13:05;;;;;;;10.50;1.80;;;6.50;99.90;;;;;;5061288;28;20434;-65
2021/01/21 08:15:32;;;;;;;3.60;1.80;;;6.60;99.90;;;;;;5066287;28;20461;-65
2021/01/21 08:17:59;;;;;;;5.97;1.70;;;6.60;99.90;;;;;;5065036;28;20804;-65
2021/01/21 08:20:30;;;;;;;3.30;1.90;;;6.50;99.90;;;;;;5061072;28;20495;-65
2021/01/21 08:23:05;;;;;;;4.30;1.53;;;6.50;99.90;;;;;;5080651;28;20431;-65
2021/01/21 08:25:53;;;;;;;3.40;1.67;;;6.40;99.90;;;;;;5064301;28;20437;-65
2021/01/21 08:28:20;;;;;;;7.60;2.13;;;6.40;99.90;;;;;;5060857;28;20557;-65
2021/01/21 08:30:50;;;;;;;3.80;1.40;;;6.30;99.90;;;;;;5065086;28;20434;-65
2021/01/21 08:33:28;;;;;;;7.83;1.87;;;6.30;99.90;;;;;;5066849;28;20492;-65
2021/01/21 08:36:02;;;;;;;3.33;1.67;;;6.30;99.90;;;;;;5062457;28;20931;-65
2021/01/21 08:38:32;;;;;;;4.33;2.47;;;6.20;99.90;;;;;;5061421;28;20599;-65
2021/01/21 08:40:58;;;;;;;3.67;1.40;;;6.20;99.90;;;;;;5058220;28;20430;-65
2021/01/21 08:43:24;;;;;;;4.80;1.83;;;6.10;99.90;;;;;;5058250;28;20481;-65
2021/01/21 08:45:51;;;;;;;3.23;1.50;;;6.10;99.90;;;;;;5063715;28;20430;-65
2021/01/21 08:48:28;;;;;;;3.90;1.60;;;6.00;99.90;;;;;;5060941;28;20445;-65
2021/01/21 08:50:55;;;;;;;4.37;2.30;;;6.00;99.90;;;;;;5064626;28;20437;-65
2021/01/21 08:53:22;;;;;;;4.77;1.70;;;6.00;99.90;;;;;;5061816;28;20795;-65
2021/01/21 08:55:52;;;;;;;3.70;1.60;;;6.00;99.90;;;;;;5057112;28;20425;-65
2021/01/21 08:58:20;;;;;;;6.30;1.90;;;6.00;99.90;;;;;;5059316;28;20516;-65
2021/01/21 09:01:05;;;;;;;4.20;1.80;;;6.00;99.90;;;;;;5057772;28;20443;-65
2021/01/21 09:03:32;;;;;;;5.57;2.23;;;6.00;99.90;;;;;;5053397;28;20476;-65
2021/01/21 09:05:58;;;;;;;8.27;2.43;;;6.00;99.90;;;;;;5055763;28;20497;-65
2021/01/21 09:08:23;;;;;;;7.47;2.63;;;6.00;99.90;;;;;;5053001;28;20473;-65
2021/01/21 09:10:49;;;;;;;4.40;2.03;;;6.00;99.90;;;;;;5058720;28;20209;-65
2021/01/21 09:13:19;;;;;;;4.17;1.50;;;6.00;99.90;;;;;;5058938;28;20179;-65
2021/01/21 09:15:58;;;;;;;4.07;2.03;;;6.00;99.90;;;;;;5053806;28;20427;-65
2021/01/21 09:18:44;;;;;;;5.83;1.93;;;6.00;99.90;;;;;;5057117;28;20476;-65
2021/01/21 09:21:12;;;;;;;6.90;2.23;;;6.10;99.90;;;;;;5053968;28;20421;-65
2021/01/21 09:23:37;;;;;;;6.30;1.90;;;6.10;99.90;;;;;;5053094;28;20480;-65
2021/01/21 09:26:20;;;;;;;8.37;2.10;;;6.10;99.90;;;;;;5054032;28;20426;-65
2021/01/21 09:28:59;;;;;;;8.93;2.00;;;6.10;99.90;;;;;;5056016;28;20512;-65
2021/01/21 09:31:28;;;;;;;6.83;1.53;;;6.20;99.90;;;;;;5059520;28;20483;-65
2021/01/21 09:33:54;;;;;;;5.80;2.00;;;6.20;99.90;;;;;;5056601;28;20469;-65
2021/01/21 09:36:20;;;;;;;9.00;2.40;;;6.30;99.90;;;;;;5062914;28;20441;-65
2021/01/21 09:38:46;;;;;;;8.00;1.93;;;6.30;99.90;;;;;;5059897;28;20227;-65
2021/01/21 09:41:12;;;;;;;9.37;2.43;;;6.40;99.90;;;;;;5061933;28;20459;-65
2021/01/21 09:43:40;;;;;;;6.13;1.60;;;6.40;99.90;;;;;;5064229;28;20520;-65
2021/01/21 09:46:06;;;;;;;4.50;2.07;;;6.40;99.90;;;;;;5055040;28;20388;-65
2021/01/21 09:48:31;;;;;;;6.90;1.97;;;6.40;99.90;;;;;;5058854;28;20426;-65
2021/01/21 09:50:57;;;;;;;9.30;2.27;;;6.50;99.90;;;;;;5060845;28;20234;-65
2021/01/21 09:53:23;;;;;;;4.33;1.93;;;6.50;99.90;;;;;;5058449;28;20178;-65
2021/01/21 09:55:50;;;;;;;6.40;1.60;;;6.50;99.90;;;;;;5058879;28;20986;-65
2021/01/21 09:58:15;;;;;;;9.07;3.23;;;6.60;99.90;;;;;;5060273;28;20669;-65
2021/01/21 10:00:41;;;;;;;3.70;1.80;;;6.60;99.90;;;;;;5055810;28;20437;-65
2021/01/21 10:03:06;;;;;;;5.93;1.90;;;6.70;99.90;;;;;;5068215;28;20183;-65
2021/01/21 10:05:32;;;;;;;9.07;2.50;;;6.70;99.90;;;;;;5065207;28;20255;-65
2021/01/21 10:07:57;;;;;;;6.20;3.07;;;6.70;99.90;;;;;;5056858;28;20195;-65
2021/01/21 10:10:23;;;;;;;8.10;2.70;;;6.80;99.90;;;;;;5059441;28;20514;-65
2021/01/21 10:12:48;;;;;;;6.50;1.87;;;6.80;99.90;;;;;;5064277;28;20188;-65
2021/01/21 10:15:15;;;;;;;4.63;2.10;;;6.90;99.90;;;;;;5054539;28;20191;-65
2021/01/21 10:17:41;;;;;;;8.27;2.40;;;6.90;99.90;;;;;;5058293;28;20192;-65
2021/01/21 10:20:07;;;;;;;12.07;3.37;;;6.90;99.90;;;;;;5053711;28;20446;-65
2021/01/21 10:22:32;;;;;;;9.63;2.83;;;7.00;99.90;;;;;;5062097;28;20585;-65
2021/01/21 10:24:57;;;;;;;8.23;3.40;;;7.00;99.90;;;;;;5062933;28;20473;-65
2021/01/21 10:27:27;;;;;;;10.40;2.47;;;7.10;99.90;;;;;;5064059;28;20193;-65
2021/01/21 10:29:55;;;;;;;5.23;2.10;;;7.10;99.90;;;;;;5064394;28;20204;-65
2021/01/21 10:32:21;;;;;;;4.00;2.10;;;7.20;99.90;;;;;;5061494;28;20461;-65
2021/01/21 10:34:46;;;;;;;5.27;2.20;;;7.30;99.90;;;;;;5065706;28;20437;-65
2021/01/21 10:37:12;;;;;;;4.83;1.80;;;7.40;99.90;;;;;;5056303;28;20188;-65
2021/01/21 10:39:37;;;;;;;5.87;2.27;;;7.50;99.90;;;;;;5053511;28;20232;-65
2021/01/21 10:42:03;;;;;;;8.40;1.87;;;7.60;99.90;;;;;;5074740;28;20649;-65
2021/01/21 10:44:28;;;;;;;5.73;2.20;;;7.60;99.90;;;;;;5060095;28;20328;-65
2021/01/21 10:46:54;;;;;;;7.20;2.50;;;7.70;99.90;;;;;;5054988;28;20184;-65
2021/01/21 10:49:19;;;;;;;4.33;2.37;;;7.80;99.90;;;;;;5053743;28;20188;-65
2021/01/21 10:51:46;;;;;;;5.33;2.50;;;7.90;99.90;;;;;;5057750;28;20188;-65
2021/01/21 10:54:11;;;;;;;4.47;1.67;;;7.90;99.90;;;;;;5059432;28;21197;-65
2021/01/21 10:56:37;;;;;;;5.13;2.03;;;8.00;99.90;;;;;;5058037;28;20510;-65
2021/01/21 10:59:03;;;;;;;5.87;2.20;;;8.00;99.90;;;;;;5059787;28;20206;-65
2021/01/21 11:01:29;;;;;;;5.40;2.27;;;8.10;99.90;;;;;;5058231;28;20222;-65
2021/01/21 11:03:54;;;;;;;6.03;2.63;;;8.20;99.90;;;;;;5056534;28;20864;-65
2021/01/21 11:06:20;;;;;;;6.83;2.00;;;8.20;99.90;;;;;;5056900;28;20455;-65
2021/01/21 11:08:45;;;;;;;6.77;2.30;;;8.20;99.90;;;;;;5057012;28;20267;-65
2021/01/21 11:11:11;;;;;;;4.00;2.57;;;8.20;99.90;;;;;;5053620;28;20543;-65
2021/01/21 11:13:36;;;;;;;4.43;1.90;;;8.30;99.90;;;;;;5061093;28;20191;-65
2021/01/21 11:16:02;;;;;;;3.20;2.00;;;8.20;99.90;;;;;;5056356;28;20176;-65
2021/01/21 11:18:28;;;;;;;6.77;3.00;;;8.20;99.90;;;;;;5061464;28;20203;-65
2021/01/21 11:20:53;;;;;;;3.33;2.27;;;8.30;99.90;;;;;;5059384;28;20535;-65
2021/01/21 11:23:22;;;;;;;7.43;1.97;;;8.40;99.90;;;;;;5058526;28;20175;-65
2021/01/21 11:25:48;;;;;;;11.40;3.07;;;8.40;99.90;;;;;;5059441;28;20297;-65
2021/01/21 11:28:14;;;;;;;4.97;2.17;;;8.50;99.90;;;;;;5062394;28;20422;-65
2021/01/21 11:30:39;;;;;;;4.80;2.00;;;8.50;99.90;;;;;;5053074;28;20435;-65
2021/01/21 11:33:05;;;;;;;6.47;2.00;;;8.60;99.90;;;;;;5062460;28;20269;-65
2021/01/21 11:35:30;;;;;;;7.87;2.00;;;8.60;99.90;;;;;;5059883;28;20264;-65
2021/01/21 11:37:56;;;;;;;4.40;1.80;;;8.60;99.90;;;;;;5057877;28;20235;-65
2021/01/21 11:40:22;;;;;;;8.10;2.50;;;8.70;99.90;;;;;;5061172;28;20445;-65
2021/01/21 11:42:47;;;;;;;7.37;2.63;;;8.60;99.90;;;;;;5058589;28;20183;-65
2021/01/21 11:45:13;;;;;;;2.70;1.50;;;8.60;99.90;;;;;;5063096;28;20172;-65
2021/01/21 11:47:40;;;;;;;4.67;1.47;;;8.70;99.90;;;;;;5066127;28;20702;-65
2021/01/21 11:50:11;;;;;;;5.20;2.00;;;8.70;99.90;;;;;;5062024;28;20160;-65
2021/01/21 11:52:37;;;;;;;5.57;1.50;;;8.70;99.90;;;;;;5060165;28;20786;-65
2021/01/21 11:55:04;;;;;;;3.00;1.60;;;8.80;99.90;;;;;;5059929;28;20483;-65
2021/01/21 11:57:29;;;;;;;2.37;2.00;;;8.70;99.90;;;;;;5063695;28;20426;-65
2021/01/21 11:59:55;;;;;;;3.07;1.20;;;8.70;99.90;;;;;;5060675;28;20477;-65
2021/01/21 12:02:20;;;;;;;2.77;1.30;;;8.80;99.90;;;;;;5061737;28;20195;-65
2021/01/21 12:04:46;;;;;;;2.33;1.50;;;8.80;99.90;;;;;;5060462;28;20183;-65
2021/01/21 12:07:11;;;;;;;2.53;1.40;;;8.80;99.90;;;;;;5059453;28;20256;-65
2021/01/21 12:09:37;;;;;;;3.07;1.63;;;8.90;99.90;;;;;;5062562;28;22045;-65
2021/01/21 12:12:02;;;;;;;7.47;2.10;;;8.90;99.90;;;;;;5058845;28;20193;-65
2021/01/21 12:14:30;;;;;;;4.93;1.13;;;8.90;99.90;;;;;;5053369;28;20184;-66
2021/01/21 12:16:55;;;;;;;6.50;1.53;;;8.90;99.90;;;;;;5062218;28;20394;-65
2021/01/21 12:19:21;;;;;;;3.50;1.53;;;8.80;99.90;;;;;;5065783;28;20755;-65
2021/01/21 12:21:46;;;;;;;2.70;1.60;;;8.70;99.90;;;;;;5061304;28;20191;-65
2021/01/21 12:24:12;;;;;;;4.60;1.90;;;8.70;99.90;;;;;;5052893;28;20184;-65
2021/01/21 12:26:37;;;;;;;2.97;1.63;;;8.70;99.90;;;;;;5060041;28;20201;-65
2021/01/21 12:29:03;;;;;;;2.60;1.27;;;8.70;99.90;;;;;;5052696;28;20188;-65
2021/01/21 12:31:29;;;;;;;3.73;1.40;;;8.70;99.90;;;;;;5055932;28;20189;-65
2021/01/21 12:33:55;;;;;;;2.43;1.23;;;8.80;99.90;;;;;;5062133;28;20696;-65
2021/01/21 12:36:21;;;;;;;2.97;1.20;;;8.80;99.90;;;;;;5065295;28;20491;-65
2021/01/21 12:38:47;;;;;;;2.17;1.20;;;8.80;99.90;;;;;;5062860;28;20836;-65
2021/01/21 12:41:12;;;;;;;3.83;1.50;;;8.80;99.90;;;;;;5061071;28;20429;-66
2021/01/21 12:43:38;;;;;;;2.20;1.10;;;8.80;99.90;;;;;;5058077;28;20283;-65
2021/01/21 12:46:03;;;;;;;3.00;1.33;;;8.80;99.90;;;;;;5064575;28;20286;-65
2021/01/21 12:48:29;;;;;;;2.77;1.60;;;8.80;99.90;;;;;;5060899;28;20687;-65
2021/01/21 12:50:55;;;;;;;3.60;1.67;;;8.80;99.90;;;;;;5051373;28;20176;-65
2021/01/21 12:53:20;;;;;;;5.93;1.90;;;8.90;99.90;;;;;;5059400;28;20179;-65
2021/01/21 12:55:45;;;;;;;4.93;1.83;;;8.90;99.90;;;;;;5061791;28;20820;-65
2021/01/21 12:58:11;;;;;;;2.97;1.50;;;8.90;99.90;;;;;;5059120;28;20234;-65